Time;durP1;ratioP1;P1;durP2;ratioP2;P2;SDS_P1;SDS_P2;PMS_P1;PMS_P2;Temp;Humidity;BMP_temperature;BMP_pressure;BME280_temperature;BME280_humidity;BME280_pressure;Samples;Min_cycle;Max_cycle;Signal;HPM_P1;HPM_P2
2021/04/23 00:00:55;;;;;;;15.57;5.88;;;7.70;59.70;;;;;;5023999;28;20044;-74
2021/04/23 00:03:24;;;;;;;12.15;5.55;;;7.70;59.80;;;;;;5042113;28;20048;-73
2021/04/23 00:06:00;;;;;;;13.05;5.93;;;7.70;59.70;;;;;;5058172;28;20067;-73
2021/04/23 00:08:31;;;;;;;12.93;6.47;;;7.70;59.70;;;;;;5026004;28;20052;-73
2021/04/23 00:10:57;;;;;;;10.68;5.90;;;7.70;60.00;;;;;;5040307;28;20113;-73
2021/04/23 00:13:23;;;;;;;10.20;5.00;;;7.70;59.80;;;;;;5040624;28;20068;-73
2021/04/23 00:15:49;;;;;;;9.30;5.03;;;7.70;59.90;;;;;;5023760;28;20053;-73
2021/04/23 00:18:15;;;;;;;10.45;5.45;;;7.70;59.80;;;;;;5024159;28;20098;-73
2021/04/23 00:20:41;;;;;;;9.50;4.90;;;7.70;59.70;;;;;;5023490;28;20049;-76
2021/04/23 00:23:07;;;;;;;11.13;5.10;;;7.70;59.70;;;;;;5024044;28;20045;-73
2021/04/23 00:25:33;;;;;;;10.45;4.43;;;7.70;59.50;;;;;;5023953;28;20052;-73
2021/04/23 00:28:02;;;;;;;12.18;4.30;;;7.80;59.90;;;;;;5003008;28;20590;-73
2021/04/23 00:30:32;;;;;;;10.88;4.55;;;7.70;59.70;;;;;;5007022;28;20482;-73
2021/04/23 00:32:58;;;;;;;9.43;5.28;;;7.80;59.70;;;;;;5023512;28;20045;-72
2021/04/23 00:35:28;;;;;;;13.30;4.95;;;7.80;59.80;;;;;;5024049;28;20049;-73
2021/04/23 00:37:54;;;;;;;11.48;4.68;;;7.80;59.80;;;;;;4990625;28;20376;-73
2021/04/23 00:40:32;;;;;;;9.35;4.75;;;7.80;59.80;;;;;;5039829;28;20041;-73
2021/04/23 00:42:58;;;;;;;8.10;4.68;;;7.80;60.00;;;;;;5006980;28;20041;-73
2021/04/23 00:45:25;;;;;;;12.07;4.63;;;7.80;59.80;;;;;;5007176;28;20505;-73
2021/04/23 00:47:51;;;;;;;8.27;4.15;;;7.80;59.80;;;;;;5023142;28;20049;-74
2021/04/23 00:50:30;;;;;;;11.00;4.80;;;7.80;59.70;;;;;;5023901;28;20037;-73
2021/04/23 00:52:57;;;;;;;8.18;4.80;;;7.80;60.00;;;;;;5040558;28;20064;-73
2021/04/23 00:55:23;;;;;;;10.93;4.57;;;7.90;59.80;;;;;;5007249;28;20456;-73
2021/04/23 00:57:49;;;;;;;11.95;4.40;;;7.90;59.90;;;;;;5023114;28;20045;-74
2021/04/23 01:00:15;;;;;;;11.35;4.50;;;7.90;59.90;;;;;;5024001;28;20037;-73
2021/04/23 01:02:41;;;;;;;10.45;4.00;;;7.90;60.00;;;;;;5039831;28;20052;-73
2021/04/23 01:05:07;;;;;;;12.38;4.63;;;7.90;60.00;;;;;;5039235;28;20048;-72
2021/04/23 01:07:33;;;;;;;11.18;4.55;;;7.90;60.00;;;;;;5023181;28;20464;-73
2021/04/23 01:10:00;;;;;;;8.88;4.47;;;7.90;60.20;;;;;;5006867;28;20069;-73
2021/04/23 01:12:26;;;;;;;11.07;4.80;;;7.90;60.10;;;;;;5023312;28;20045;-74
2021/04/23 01:14:52;;;;;;;8.48;3.65;;;7.90;60.20;;;;;;5039352;28;20052;-72
2021/04/23 01:17:21;;;;;;;12.43;4.28;;;7.90;60.20;;;;;;5006878;28;20049;-72
2021/04/23 01:19:46;;;;;;;10.80;4.68;;;7.90;60.30;;;;;;5005647;28;20072;-80
2021/04/23 01:22:12;;;;;;;9.85;4.25;;;7.90;60.20;;;;;;5054531;28;20055;-73
2021/04/23 01:24:38;;;;;;;9.35;4.03;;;7.90;60.30;;;;;;5020119;28;20496;-73
2021/04/23 01:27:04;;;;;;;12.13;4.68;;;7.80;60.20;;;;;;5021053;28;20052;-74
2021/04/23 01:29:30;;;;;;;11.93;4.10;;;7.90;60.70;;;;;;5006931;28;20049;-73
2021/04/23 01:31:56;;;;;;;13.10;5.13;;;7.80;60.90;;;;;;5022569;28;20131;-73
2021/04/23 01:34:36;;;;;;;10.85;4.50;;;7.80;60.90;;;;;;5023035;28;20049;-72
2021/04/23 01:37:03;;;;;;;8.23;3.95;;;7.80;61.10;;;;;;5040480;28;20421;-73
2021/04/23 01:39:30;;;;;;;11.63;4.47;;;7.70;61.10;;;;;;5006606;28;20048;-73
2021/04/23 01:41:57;;;;;;;14.43;4.57;;;7.70;61.10;;;;;;5022413;28;20043;-73
2021/04/23 01:44:23;;;;;;;10.55;4.05;;;7.70;61.30;;;;;;5022932;28;20083;-73
2021/04/23 01:46:49;;;;;;;7.80;4.93;;;7.70;61.50;;;;;;5039767;28;20037;-77
2021/04/23 01:49:15;;;;;;;8.50;3.83;;;7.60;61.50;;;;;;5022541;28;20060;-73
2021/04/23 01:51:43;;;;;;;10.07;5.00;;;7.60;61.70;;;;;;5039255;28;20403;-73
2021/04/23 01:54:09;;;;;;;8.68;3.88;;;7.60;61.70;;;;;;5038798;28;20371;-73
2021/04/23 01:56:35;;;;;;;9.60;4.60;;;7.60;61.90;;;;;;5022612;28;20102;-74
2021/04/23 01:59:01;;;;;;;10.82;4.60;;;7.50;61.90;;;;;;5021810;28;20053;-73
2021/04/23 02:01:27;;;;;;;8.70;3.97;;;7.50;62.10;;;;;;5039095;28;20470;-73
2021/04/23 02:03:53;;;;;;;10.30;4.15;;;7.50;62.10;;;;;;5022334;28;20041;-74
2021/04/23 02:06:19;;;;;;;9.10;4.57;;;7.50;62.20;;;;;;5005856;28;20129;-72
2021/04/23 02:08:48;;;;;;;10.52;4.50;;;7.50;62.20;;;;;;5038711;28;20091;-72
2021/04/23 02:11:17;;;;;;;14.80;4.40;;;7.50;62.10;;;;;;4990282;28;20045;-73
2021/04/23 02:13:43;;;;;;;10.23;4.40;;;7.40;62.30;;;;;;5022880;28;20048;-73
2021/04/23 02:16:13;;;;;;;11.00;4.07;;;7.40;62.40;;;;;;5023075;28;20045;-74
2021/04/23 02:18:39;;;;;;;11.25;4.10;;;7.40;62.50;;;;;;5039186;28;20048;-72
2021/04/23 02:21:05;;;;;;;10.93;4.55;;;7.40;62.60;;;;;;5005678;28;20053;-73
2021/04/23 02:23:31;;;;;;;10.23;4.35;;;7.40;62.70;;;;;;5006095;28;20383;-72
2021/04/23 02:25:56;;;;;;;8.90;4.10;;;7.40;62.70;;;;;;5040358;28;20053;-76
2021/04/23 02:28:22;;;;;;;8.80;4.68;;;7.40;62.80;;;;;;5006170;28;20041;-73
2021/04/23 02:30:53;;;;;;;11.73;4.13;;;7.40;62.80;;;;;;4989909;28;20380;-72
2021/04/23 02:33:20;;;;;;;11.02;4.85;;;7.30;62.80;;;;;;5022404;28;20037;-72
2021/04/23 02:35:47;;;;;;;10.05;4.45;;;7.30;62.90;;;;;;5006122;28;20072;-73
2021/04/23 02:38:13;;;;;;;11.05;4.82;;;7.30;62.90;;;;;;5021874;28;20406;-72
2021/04/23 02:40:39;;;;;;;13.57;5.28;;;7.30;63.00;;;;;;5005939;28;20125;-73
2021/04/23 02:43:12;;;;;;;12.27;4.43;;;7.20;63.00;;;;;;5019184;28;20061;-73
2021/04/23 02:45:38;;;;;;;11.73;4.57;;;7.30;63.20;;;;;;5000605;28;20033;-73
2021/04/23 02:48:05;;;;;;;11.07;4.85;;;7.20;63.00;;;;;;4998822;28;20057;-73
2021/04/23 02:50:31;;;;;;;10.40;4.93;;;7.20;63.00;;;;;;5001854;28;20401;-73
2021/04/23 02:52:57;;;;;;;12.13;5.13;;;7.20;63.20;;;;;;5019330;28;20071;-74
2021/04/23 02:55:23;;;;;;;9.35;4.65;;;7.20;63.30;;;;;;5002591;28;20048;-72
2021/04/23 02:57:54;;;;;;;9.60;4.55;;;7.10;63.20;;;;;;5035919;28;20500;-73
2021/04/23 03:00:21;;;;;;;9.23;4.35;;;7.10;63.20;;;;;;5018888;28;20258;-73
2021/04/23 03:02:46;;;;;;;13.45;5.80;;;7.10;63.30;;;;;;5019438;28;20041;-72
2021/04/23 03:05:12;;;;;;;9.38;4.57;;;7.10;63.40;;;;;;5018634;28;20072;-73
2021/04/23 03:07:38;;;;;;;9.65;4.32;;;7.10;63.40;;;;;;5019149;28;20045;-73
2021/04/23 03:10:06;;;;;;;9.98;4.72;;;7.00;63.40;;;;;;5018533;28;20075;-76
2021/04/23 03:12:31;;;;;;;8.68;4.35;;;7.00;63.50;;;;;;5035543;28;20114;-73
2021/04/23 03:14:57;;;;;;;12.32;4.35;;;7.00;63.50;;;;;;5018974;28;20049;-74
2021/04/23 03:17:23;;;;;;;12.15;4.43;;;7.00;63.60;;;;;;5002074;28;20103;-73
2021/04/23 03:19:49;;;;;;;8.82;4.60;;;6.90;63.60;;;;;;5053275;28;20131;-72
2021/04/23 03:22:14;;;;;;;9.98;3.95;;;6.90;63.70;;;;;;5018286;28;20048;-73
2021/04/23 03:24:40;;;;;;;8.27;3.70;;;6.90;63.80;;;;;;5035283;28;20146;-72
2021/04/23 03:27:06;;;;;;;14.60;4.13;;;6.90;63.80;;;;;;5017463;28;20061;-78
2021/04/23 03:29:32;;;;;;;7.60;4.07;;;6.90;63.90;;;;;;5035113;28;20044;-72
2021/04/23 03:31:57;;;;;;;8.73;4.15;;;6.90;63.90;;;;;;5035006;28;20095;-73
2021/04/23 03:34:24;;;;;;;8.35;3.92;;;6.80;64.00;;;;;;5001971;28;20057;-72
2021/04/23 03:36:50;;;;;;;11.45;4.22;;;6.80;63.90;;;;;;5002230;28;20052;-74
2021/04/23 03:39:16;;;;;;;11.90;3.92;;;6.80;64.00;;;;;;5017711;28;20053;-74
2021/04/23 03:41:42;;;;;;;13.18;4.57;;;6.70;64.00;;;;;;5052647;28;20171;-72
2021/04/23 03:44:08;;;;;;;8.95;4.00;;;6.80;64.20;;;;;;5018140;28;20041;-77
2021/04/23 03:46:34;;;;;;;9.23;3.97;;;6.70;64.20;;;;;;5018402;28;20041;-72
2021/04/23 03:48:59;;;;;;;12.23;4.50;;;6.70;64.20;;;;;;5018470;28;20049;-72
2021/04/23 03:51:25;;;;;;;9.23;3.50;;;6.70;65.00;;;;;;5001319;28;20097;-71
2021/04/23 03:53:51;;;;;;;8.73;3.80;;;6.70;64.30;;;;;;5034980;28;20473;-73
2021/04/23 03:56:17;;;;;;;11.75;3.63;;;6.70;64.30;;;;;;5017639;28;20112;-73
2021/04/23 03:58:43;;;;;;;7.57;3.45;;;6.70;64.30;;;;;;5018113;28;20049;-72
2021/04/23 04:01:14;;;;;;;11.90;3.83;;;6.70;64.40;;;;;;5001824;28;20114;-77
2021/04/23 04:03:40;;;;;;;9.32;3.72;;;6.70;64.40;;;;;;5002655;28;20505;-72
2021/04/23 04:06:13;;;;;;;9.05;4.03;;;6.70;64.40;;;;;;5018458;28;20108;-72
2021/04/23 04:08:40;;;;;;;10.80;4.05;;;6.60;64.50;;;;;;5034967;28;20049;-71
2021/04/23 04:11:06;;;;;;;11.23;3.42;;;6.60;64.40;;;;;;5005990;28;20033;-73
2021/04/23 04:13:32;;;;;;;8.98;3.78;;;6.60;64.50;;;;;;5005080;28;20203;-72
2021/04/23 04:15:58;;;;;;;8.65;3.72;;;6.60;64.50;;;;;;5022178;28;20474;-72
2021/04/23 04:18:24;;;;;;;11.10;3.83;;;6.60;64.60;;;;;;5021801;28;20282;-72
2021/04/23 04:20:50;;;;;;;9.25;3.45;;;6.60;64.80;;;;;;5021951;28;20454;-72
2021/04/23 04:23:17;;;;;;;10.07;3.65;;;6.60;64.70;;;;;;5020029;28;20052;-74
2021/04/23 04:25:48;;;;;;;10.27;3.25;;;6.60;64.70;;;;;;5034517;28;20037;-73
2021/04/23 04:28:14;;;;;;;10.95;3.60;;;6.60;64.90;;;;;;5017493;28;20049;-77
2021/04/23 04:30:40;;;;;;;8.85;3.38;;;6.60;64.60;;;;;;5016921;28;20056;-72
2021/04/23 04:33:06;;;;;;;11.77;3.60;;;6.60;64.80;;;;;;5017664;28;20085;-72
2021/04/23 04:35:32;;;;;;;13.00;3.55;;;6.60;64.80;;;;;;5000304;28;20045;-72
2021/04/23 04:37:57;;;;;;;9.98;3.80;;;6.50;64.60;;;;;;5017170;28;20179;-72
2021/04/23 04:40:24;;;;;;;10.82;3.50;;;6.50;64.70;;;;;;4999940;28;20040;-74
2021/04/23 04:42:50;;;;;;;8.02;4.00;;;6.50;65.40;;;;;;5033915;28;20401;-73
2021/04/23 04:45:18;;;;;;;10.88;3.17;;;6.50;64.60;;;;;;5017271;28;20053;-77
2021/04/23 04:47:44;;;;;;;8.70;4.15;;;6.50;64.60;;;;;;5033941;28;20128;-73
2021/04/23 04:50:16;;;;;;;8.15;3.30;;;6.50;64.60;;;;;;5000808;28;20517;-72
2021/04/23 04:52:41;;;;;;;11.68;3.63;;;6.50;64.60;;;;;;5033359;28;20128;-72
2021/04/23 04:55:08;;;;;;;8.80;3.22;;;6.40;64.50;;;;;;5014832;28;20127;-74
2021/04/23 04:57:35;;;;;;;7.68;3.20;;;6.40;64.70;;;;;;5013422;28;20048;-73
2021/04/23 05:00:05;;;;;;;11.38;3.50;;;6.40;64.70;;;;;;4998057;28;20072;-73
2021/04/23 05:02:32;;;;;;;7.38;3.42;;;6.40;64.70;;;;;;4996240;28;20053;-74
2021/04/23 05:04:58;;;;;;;12.52;3.63;;;6.40;64.70;;;;;;5032202;28;20436;-72
2021/04/23 05:07:23;;;;;;;13.40;3.67;;;6.40;64.70;;;;;;5027679;28;20117;-74
2021/04/23 05:09:49;;;;;;;10.30;3.47;;;6.40;64.70;;;;;;5033373;28;20091;-72
2021/04/23 05:12:17;;;;;;;7.45;3.05;;;6.40;64.80;;;;;;5015803;28;20534;-73
2021/04/23 05:14:43;;;;;;;10.65;3.58;;;6.40;64.80;;;;;;5048777;28;20120;-73
2021/04/23 05:17:09;;;;;;;9.88;3.30;;;6.40;64.90;;;;;;5026553;28;20120;-73
2021/04/23 05:19:34;;;;;;;8.80;3.30;;;6.40;64.90;;;;;;5021805;28;20132;-72
2021/04/23 05:22:00;;;;;;;8.73;3.17;;;6.40;64.70;;;;;;5023490;28;20496;-74
2021/04/23 05:24:26;;;;;;;7.82;3.45;;;6.40;64.60;;;;;;5004367;28;20059;-73
2021/04/23 05:26:52;;;;;;;10.20;3.40;;;6.50;64.70;;;;;;5023161;28;20037;-72
2021/04/23 05:29:18;;;;;;;11.80;3.15;;;6.40;64.50;;;;;;5022776;28;20605;-72
2021/04/23 05:31:43;;;;;;;10.18;3.35;;;6.50;64.60;;;;;;5006001;28;20461;-73
2021/04/23 05:34:09;;;;;;;10.95;4.75;;;6.50;64.50;;;;;;5010475;28;20447;-72
2021/04/23 05:36:35;;;;;;;9.73;3.63;;;6.50;64.50;;;;;;5013644;28;20045;-72
2021/04/23 05:39:01;;;;;;;9.45;3.15;;;6.50;64.50;;;;;;5025546;28;20544;-72
2021/04/23 05:41:27;;;;;;;10.85;3.08;;;6.50;64.50;;;;;;5002386;28;20091;-74
2021/04/23 05:43:53;;;;;;;10.13;2.88;;;6.50;64.40;;;;;;5008209;28;20163;-76
2021/04/23 05:46:18;;;;;;;8.98;3.05;;;6.50;64.60;;;;;;5024915;28;20090;-72
2021/04/23 05:48:46;;;;;;;9.07;3.63;;;6.60;64.70;;;;;;4999393;28;20527;-71
2021/04/23 05:51:11;;;;;;;5.40;2.45;;;6.60;64.70;;;;;;5026744;28;20039;-72
2021/04/23 05:53:37;;;;;;;9.57;3.00;;;6.60;64.50;;;;;;5042418;28;20056;-70
2021/04/23 05:56:03;;;;;;;9.45;3.10;;;6.60;64.50;;;;;;5028040;28;20040;-73
2021/04/23 05:58:29;;;;;;;6.43;2.58;;;6.70;65.00;;;;;;5045121;28;20056;-74
2021/04/23 06:00:55;;;;;;;10.90;3.15;;;6.70;64.40;;;;;;5017620;28;20049;-72
2021/04/23 06:03:21;;;;;;;7.55;3.08;;;6.70;64.40;;;;;;5036545;28;20427;-77
2021/04/23 06:05:46;;;;;;;7.03;2.70;;;6.70;63.90;;;;;;5001761;28;20652;-75
2021/04/23 06:08:13;;;;;;;10.40;3.17;;;6.80;64.30;;;;;;5003410;28;20037;-74
2021/04/23 06:10:40;;;;;;;6.38;2.65;;;6.80;64.10;;;;;;5034559;28;20094;-72
2021/04/23 06:13:07;;;;;;;5.70;2.63;;;6.80;64.20;;;;;;5046886;28;20474;-72
2021/04/23 06:15:32;;;;;;;10.57;2.80;;;6.90;64.30;;;;;;5008035;28;20048;-72
2021/04/23 06:17:58;;;;;;;4.60;2.35;;;6.80;64.20;;;;;;5019568;28;20124;-73
2021/04/23 06:20:27;;;;;;;8.57;2.58;;;7.00;66.40;;;;;;5003152;28;20054;-75
2021/04/23 06:22:53;;;;;;;9.57;2.70;;;7.70;67.90;;;;;;5053481;28;20064;-72
2021/04/23 06:25:19;;;;;;;9.57;3.00;;;7.90;65.10;;;;;;5035438;28;20504;-72
2021/04/23 06:27:46;;;;;;;11.48;3.05;;;7.90;63.90;;;;;;5008785;28;20465;-71
2021/04/23 06:30:17;;;;;;;8.52;2.70;;;7.90;63.60;;;;;;5016279;28;20052;-72
2021/04/23 06:32:44;;;;;;;7.30;2.45;;;7.80;63.40;;;;;;4999314;28;20054;-73
2021/04/23 06:35:11;;;;;;;8.90;3.10;;;7.80;63.30;;;;;;5000270;28;20051;-71
2021/04/23 06:37:37;;;;;;;6.25;2.40;;;7.80;63.20;;;;;;5015747;28;20038;-72
2021/04/23 06:40:04;;;;;;;9.52;3.60;;;7.80;63.30;;;;;;5016586;28;20108;-71
2021/04/23 06:42:30;;;;;;;7.00;3.03;;;7.80;63.30;;;;;;5034077;28;20052;-71
2021/04/23 06:44:55;;;;;;;8.43;2.70;;;7.80;63.40;;;;;;4999404;28;20053;-71
2021/04/23 06:47:23;;;;;;;7.00;3.13;;;7.80;63.60;;;;;;5000155;28;20397;-72
2021/04/23 06:49:49;;;;;;;8.68;2.70;;;7.90;63.60;;;;;;5033140;28;20056;-71
2021/04/23 06:52:15;;;;;;;9.38;3.08;;;7.90;63.80;;;;;;5016320;28;20385;-72
2021/04/23 06:54:40;;;;;;;10.85;2.92;;;7.90;64.60;;;;;;5015337;28;20072;-71
2021/04/23 06:57:09;;;;;;;7.72;3.25;;;8.00;63.60;;;;;;5016185;28;20072;-71
2021/04/23 06:59:35;;;;;;;7.88;2.50;;;8.00;63.80;;;;;;5016171;28;20120;-76
2021/04/23 07:02:01;;;;;;;8.57;2.63;;;8.00;63.70;;;;;;5033112;28;20438;-72
2021/04/23 07:04:27;;;;;;;8.93;2.97;;;8.10;63.70;;;;;;5016012;28;20488;-75
2021/04/23 07:06:52;;;;;;;7.10;2.67;;;8.10;63.70;;;;;;5015281;28;20342;-72
2021/04/23 07:09:18;;;;;;;7.70;3.20;;;8.10;63.70;;;;;;5015389;28;20103;-71
2021/04/23 07:11:45;;;;;;;9.18;3.08;;;8.10;63.60;;;;;;4998434;28;20150;-72
2021/04/23 07:14:11;;;;;;;8.52;2.90;;;8.10;63.80;;;;;;4999547;28;20041;-71
2021/04/23 07:16:37;;;;;;;13.10;3.55;;;8.20;64.00;;;;;;5033003;28;20127;-77
2021/04/23 07:19:03;;;;;;;8.40;3.58;;;8.20;64.20;;;;;;5032386;28;20049;-72
2021/04/23 07:21:29;;;;;;;7.70;2.85;;;8.30;64.10;;;;;;4999273;28;20081;-72
2021/04/23 07:23:54;;;;;;;12.90;3.90;;;8.40;64.10;;;;;;5032220;28;20084;-72
2021/04/23 07:26:20;;;;;;;8.57;3.05;;;8.40;64.10;;;;;;5015466;28;20045;-72
2021/04/23 07:28:46;;;;;;;12.52;3.10;;;8.50;64.10;;;;;;5016685;28;20069;-72
2021/04/23 07:31:11;;;;;;;8.32;3.47;;;8.50;63.70;;;;;;5036858;28;20050;-71
2021/04/23 07:33:37;;;;;;;6.60;2.90;;;8.60;63.60;;;;;;5003022;28;20065;-72
2021/04/23 07:36:04;;;;;;;10.05;3.83;;;8.60;63.50;;;;;;5035889;28;20056;-71
2021/04/23 07:38:30;;;;;;;9.70;3.63;;;8.60;63.10;;;;;;5037006;28;20049;-72
2021/04/23 07:40:57;;;;;;;7.90;3.13;;;8.60;63.00;;;;;;5036370;28;20041;-73
2021/04/23 07:43:23;;;;;;;7.38;4.05;;;8.70;63.10;;;;;;5019162;28;20095;-72
2021/04/23 07:45:49;;;;;;;9.07;4.18;;;8.70;63.00;;;;;;5017866;28;20045;-72
2021/04/23 07:48:14;;;;;;;11.38;4.13;;;8.80;62.90;;;;;;5015208;28;20076;-71
2021/04/23 07:50:41;;;;;;;11.73;4.13;;;8.80;62.80;;;;;;4982836;28;20410;-72
2021/04/23 07:53:06;;;;;;;8.65;3.65;;;8.90;62.80;;;;;;4998190;28;20390;-71
2021/04/23 07:55:32;;;;;;;7.70;3.45;;;9.00;62.80;;;;;;5032497;28;20049;-71
2021/04/23 07:57:58;;;;;;;9.57;4.00;;;9.00;62.60;;;;;;5014085;28;20115;-72
2021/04/23 08:00:24;;;;;;;8.27;3.80;;;9.10;62.30;;;;;;5015053;28;20237;-71
2021/04/23 08:02:51;;;;;;;9.82;3.45;;;9.10;62.10;;;;;;5031653;28;20120;-73
2021/04/23 08:05:18;;;;;;;8.40;3.33;;;9.10;62.00;;;;;;4999060;28;20046;-73
2021/04/23 08:07:45;;;;;;;9.85;3.95;;;9.20;61.70;;;;;;4998456;28;20057;-75
2021/04/23 08:10:18;;;;;;;9.25;4.38;;;9.30;61.70;;;;;;4997884;28;20045;-71
2021/04/23 08:12:46;;;;;;;7.43;4.00;;;9.30;61.50;;;;;;5032052;28;20045;-74
2021/04/23 08:15:13;;;;;;;7.03;3.33;;;9.40;61.60;;;;;;5014986;28;20045;-72
2021/04/23 08:17:39;;;;;;;9.35;3.70;;;9.40;61.10;;;;;;4982212;28;20060;-71
2021/04/23 08:20:06;;;;;;;11.77;3.90;;;9.40;61.10;;;;;;5031300;28;20061;-72
2021/04/23 08:22:32;;;;;;;7.72;3.72;;;9.50;60.90;;;;;;4998189;28;20506;-72
2021/04/23 08:24:58;;;;;;;8.98;3.95;;;9.50;60.60;;;;;;4997546;28;20052;-71
2021/04/23 08:27:24;;;;;;;7.97;3.72;;;9.60;60.40;;;;;;5032100;28;20042;-72
2021/04/23 08:29:49;;;;;;;11.23;4.18;;;9.70;60.30;;;;;;5035086;28;20061;-76
2021/04/23 08:32:15;;;;;;;8.32;4.22;;;9.80;60.30;;;;;;5002614;28;20084;-71
2021/04/23 08:34:42;;;;;;;8.00;3.38;;;9.90;60.20;;;;;;5019188;28;20398;-71
2021/04/23 08:37:08;;;;;;;6.72;3.33;;;9.90;60.00;;;;;;5002424;28;20106;-73
2021/04/23 08:39:33;;;;;;;7.57;3.00;;;10.00;60.00;;;;;;5034132;28;20458;-71
2021/04/23 08:41:59;;;;;;;6.68;3.58;;;10.00;59.80;;;;;;5034898;28;20069;-72
2021/04/23 08:44:25;;;;;;;7.68;3.72;;;10.10;59.60;;;;;;5002517;28;20056;-71
2021/04/23 08:46:51;;;;;;;9.05;4.45;;;10.10;59.50;;;;;;5018071;28;20050;-77
2021/04/23 08:49:17;;;;;;;8.32;3.83;;;10.20;59.40;;;;;;5001654;28;20056;-72
2021/04/23 08:51:45;;;;;;;8.93;4.20;;;10.20;59.30;;;;;;4986073;28;20095;-71
2021/04/23 08:54:11;;;;;;;9.30;3.53;;;10.30;59.20;;;;;;4983668;28;20611;-73
2021/04/23 08:56:36;;;;;;;7.93;3.95;;;10.30;59.10;;;;;;4997400;28;20069;-71
2021/04/23 08:59:02;;;;;;;8.07;4.00;;;10.40;59.00;;;;;;5014188;28;20508;-72
2021/04/23 09:01:28;;;;;;;5.68;3.80;;;10.40;58.90;;;;;;5013818;28;20132;-71
2021/04/23 09:03:54;;;;;;;8.38;4.68;;;10.40;58.70;;;;;;5031067;28;20060;-77
2021/04/23 09:06:24;;;;;;;7.18;4.22;;;10.50;58.50;;;;;;5031264;28;20049;-72
2021/04/23 09:08:57;;;;;;;6.93;4.25;;;10.50;58.10;;;;;;4998731;28;20382;-71
2021/04/23 09:11:25;;;;;;;10.10;4.65;;;10.50;58.10;;;;;;4998765;28;20045;-72
2021/04/23 09:13:55;;;;;;;9.07;3.85;;;10.50;58.10;;;;;;5005342;28;20041;-72
2021/04/23 09:16:23;;;;;;;9.00;4.03;;;10.60;57.90;;;;;;5022184;28;20049;-72
2021/04/23 09:18:49;;;;;;;9.25;3.83;;;10.70;57.70;;;;;;5005831;28;20148;-70
2021/04/23 09:21:15;;;;;;;8.40;3.55;;;10.70;57.70;;;;;;5005058;28;20136;-72
2021/04/23 09:23:52;;;;;;;10.68;4.28;;;10.80;57.90;;;;;;5021135;28;20098;-72
2021/04/23 09:26:37;;;;;;;8.88;4.05;;;11.00;57.90;;;;;;5021234;28;20133;-72
2021/04/23 09:29:04;;;;;;;8.57;4.10;;;11.10;57.60;;;;;;5021389;28;20064;-73
2021/04/23 09:31:34;;;;;;;7.63;3.40;;;11.20;57.30;;;;;;5021822;28;20085;-71
2021/04/23 09:34:02;;;;;;;8.75;3.75;;;11.30;57.20;;;;;;5020763;28;20050;-74
2021/04/23 09:36:40;;;;;;;7.18;3.72;;;11.40;57.00;;;;;;5020981;28;20050;-71
2021/04/23 09:39:23;;;;;;;10.85;3.80;;;11.40;56.40;;;;;;5020265;28;20064;-72
2021/04/23 09:42:02;;;;;;;8.43;3.85;;;11.50;55.90;;;;;;5039344;28;20482;-71
2021/04/23 09:44:37;;;;;;;7.47;4.40;;;11.60;56.40;;;;;;5039362;28;20050;-71
2021/04/23 09:47:15;;;;;;;9.75;4.15;;;11.70;56.40;;;;;;5038404;28;20059;-72
2021/04/23 09:50:00;;;;;;;8.32;3.78;;;11.80;55.80;;;;;;5006541;28;20549;-72
2021/04/23 09:52:27;;;;;;;9.23;4.55;;;11.90;55.40;;;;;;5021293;28;20041;-72
2021/04/23 09:54:54;;;;;;;9.15;3.97;;;12.00;55.60;;;;;;5005158;28;20072;-71
2021/04/23 09:57:27;;;;;;;8.75;4.03;;;12.10;55.50;;;;;;4988196;28;20086;-72
2021/04/23 09:59:54;;;;;;;6.97;4.15;;;12.20;55.30;;;;;;5038825;28;20041;-72
2021/04/23 10:02:22;;;;;;;10.38;4.20;;;12.20;55.20;;;;;;5038228;28;20083;-72
2021/04/23 10:04:48;;;;;;;6.50;3.90;;;12.30;54.40;;;;;;5039169;28;20096;-73
2021/04/23 10:07:15;;;;;;;7.13;4.65;;;12.30;54.70;;;;;;5020806;28;20041;-72
2021/04/23 10:09:56;;;;;;;7.82;4.35;;;12.40;54.50;;;;;;5020992;28;20037;-72
2021/04/23 10:12:43;;;;;;;7.85;4.75;;;12.50;54.60;;;;;;5037979;28;20038;-73
2021/04/23 10:15:14;;;;;;;7.90;3.72;;;12.70;54.40;;;;;;5003088;28;20057;-73
2021/04/23 10:17:55;;;;;;;8.23;5.00;;;12.90;54.30;;;;;;5037882;28;20117;-73
2021/04/23 10:20:28;;;;;;;6.90;4.63;;;13.10;54.10;;;;;;5003197;28;20061;-71
2021/04/23 10:22:54;;;;;;;7.05;4.00;;;13.20;52.90;;;;;;5038735;28;20069;-73
2021/04/23 10:25:20;;;;;;;7.13;4.13;;;13.30;52.70;;;;;;5038522;28;20033;-72
2021/04/23 10:27:46;;;;;;;8.10;4.60;;;13.40;52.30;;;;;;5025972;28;20445;-73
2021/04/23 10:30:17;;;;;;;6.63;4.10;;;13.50;52.20;;;;;;5015158;28;20045;-73
2021/04/23 10:32:49;;;;;;;9.65;4.43;;;13.60;52.40;;;;;;5027535;28;20045;-72
2021/04/23 10:35:15;;;;;;;6.95;4.07;;;13.90;52.80;;;;;;5032119;28;20497;-74
2021/04/23 10:37:42;;;;;;;8.20;4.30;;;14.10;52.70;;;;;;5030656;28;20056;-72
2021/04/23 10:40:08;;;;;;;7.40;4.47;;;14.20;51.80;;;;;;5035986;28;20043;-78
2021/04/23 10:42:41;;;;;;;6.97;4.00;;;14.20;50.90;;;;;;5015806;28;20041;-73
2021/04/23 10:45:21;;;;;;;8.25;4.43;;;14.20;50.30;;;;;;5035548;28;20044;-79
2021/04/23 10:47:47;;;;;;;7.55;4.07;;;14.30;50.00;;;;;;5018252;28;20136;-73
2021/04/23 10:50:14;;;;;;;5.53;4.18;;;14.30;50.00;;;;;;5018849;28;20072;-74
2021/04/23 10:53:04;;;;;;;5.70;4.00;;;14.30;49.80;;;;;;5018963;28;20106;-74
2021/04/23 10:55:50;;;;;;;6.35;4.40;;;14.30;49.60;;;;;;5017019;28;20121;-73
2021/04/23 10:58:37;;;;;;;7.88;4.60;;;14.50;48.80;;;;;;5024407;28;20042;-75
2021/04/23 11:01:21;;;;;;;8.07;4.55;;;14.60;48.60;;;;;;5008523;28;20128;-73
2021/04/23 11:04:03;;;;;;;8.23;4.95;;;14.60;48.60;;;;;;5024319;28;20120;-73
2021/04/23 11:06:31;;;;;;;11.13;4.85;;;14.60;47.70;;;;;;5007706;28;20125;-73
2021/04/23 11:09:00;;;;;;;7.88;4.57;;;14.60;48.50;;;;;;5024134;28;20485;-73
2021/04/23 11:11:36;;;;;;;7.35;3.88;;;14.80;48.80;;;;;;5040867;28;20175;-74
2021/04/23 11:14:24;;;;;;;9.60;4.60;;;14.80;47.70;;;;;;5023117;28;20038;-73
2021/04/23 11:16:51;;;;;;;8.25;4.22;;;14.90;47.60;;;;;;5026343;28;20060;-72
2021/04/23 11:19:21;;;;;;;8.95;4.72;;;15.00;47.90;;;;;;5031396;28;20037;-73
2021/04/23 11:21:47;;;;;;;6.57;4.60;;;15.20;46.90;;;;;;5034684;28;20053;-74
2021/04/23 11:24:28;;;;;;;6.72;4.10;;;15.30;45.70;;;;;;5007828;28;20065;-77
2021/04/23 11:27:02;;;;;;;5.82;4.28;;;15.30;46.10;;;;;;5008149;28;20068;-73
2021/04/23 11:29:39;;;;;;;7.25;4.32;;;15.40;46.00;;;;;;5023358;28;20053;-73
2021/04/23 11:32:10;;;;;;;9.05;4.53;;;15.40;46.20;;;;;;5023773;28;20038;-74
2021/04/23 11:34:40;;;;;;;7.10;4.30;;;15.30;46.20;;;;;;5036271;28;20078;-73
2021/04/23 11:37:10;;;;;;;6.25;3.88;;;15.40;46.00;;;;;;5029476;28;20041;-73
2021/04/23 11:39:42;;;;;;;6.47;4.78;;;15.50;45.50;;;;;;5024040;28;20281;-73
2021/04/23 11:42:21;;;;;;;;;;;15.80;45.40;;;;;;5008541;28;20105;-73
2021/04/23 11:45:03;;;;;;;8.10;4.10;;;16.20;43.40;;;;;;5022707;28;19921;-73
2021/04/23 11:47:39;;;;;;;7.43;4.20;;;16.50;43.70;;;;;;5010698;28;20043;-74
2021/04/23 11:50:23;;;;;;;5.22;4.00;;;16.80;43.10;;;;;;5042147;28;20045;-75
2021/04/23 11:52:54;;;;;;;5.95;4.32;;;17.20;42.40;;;;;;5043531;28;20072;-76
2021/04/23 11:55:25;;;;;;;8.45;4.32;;;17.60;42.60;;;;;;5042875;28;20116;-73
2021/04/23 11:58:12;;;;;;;7.80;4.43;;;17.90;42.20;;;;;;5026510;28;20048;-72
2021/04/23 12:00:40;;;;;;;7.05;4.18;;;17.90;41.90;;;;;;5014546;28;20107;-73
2021/04/23 12:03:06;;;;;;;8.27;4.50;;;17.80;41.60;;;;;;5006868;28;20149;-74
2021/04/23 12:05:39;;;;;;;8.20;4.90;;;17.60;40.90;;;;;;5021982;28;20049;-73
2021/04/23 12:08:11;;;;;;;7.40;4.75;;;17.40;40.70;;;;;;5022756;28;20454;-74
2021/04/23 12:10:41;;;;;;;;;;;17.30;39.90;;;;;;5006337;28;20147;-73
2021/04/23 12:13:14;;;;;;;8.35;4.68;;;17.40;39.20;;;;;;5006061;28;19921;-70
2021/04/23 12:15:41;;;;;;;5.60;3.20;;;17.70;41.00;;;;;;5021691;28;20661;-70
2021/04/23 12:18:08;;;;;;;6.82;4.43;;;18.10;42.30;;;;;;5020679;28;20044;-74
2021/04/23 12:20:43;;;;;;;8.05;4.65;;;18.30;40.20;;;;;;5047354;28;20147;-77
2021/04/23 12:23:12;;;;;;;8.20;5.70;;;18.40;39.30;;;;;;5048945;28;20097;-72
2021/04/23 12:25:39;;;;;;;8.88;4.90;;;18.30;40.00;;;;;;5032480;28;20052;-73
2021/04/23 12:28:34;;;;;;;10.80;5.22;;;18.00;40.10;;;;;;5035313;28;20151;-73
2021/04/23 12:31:23;;;;;;;7.75;5.75;;;17.80;38.30;;;;;;5030511;28;20033;-74
2021/04/23 12:33:59;;;;;;;9.50;5.82;;;17.60;40.00;;;;;;5038481;28;20049;-74
2021/04/23 12:36:39;;;;;;;8.38;5.45;;;17.50;39.90;;;;;;5022056;28;20064;-77
2021/04/23 12:39:11;;;;;;;7.85;5.80;;;17.50;38.50;;;;;;5039352;28;20052;-71
2021/04/23 12:41:45;;;;;;;7.57;5.57;;;17.60;39.30;;;;;;5057596;28;20045;-72
2021/04/23 12:44:21;;;;;;;4.88;3.83;;;17.90;39.00;;;;;;5059425;28;20041;-74
2021/04/23 12:46:56;;;;;;;6.30;4.28;;;18.30;40.60;;;;;;5035740;28;20504;-75
2021/04/23 12:49:30;;;;;;;9.10;5.32;;;18.80;40.00;;;;;;5027906;28;20044;-74
2021/04/23 12:52:10;;;;;;;9.65;5.20;;;19.10;39.30;;;;;;5051204;28;20045;-74
2021/04/23 12:54:48;;;;;;;9.18;5.20;;;19.00;38.50;;;;;;5002206;28;20056;-73
2021/04/23 12:57:28;;;;;;;8.98;5.82;;;19.00;38.50;;;;;;5000003;28;20098;-76